createdAt,value
2017-06-10T00:00:34.767Z,1007.12
2017-06-10T00:01:36.212Z,1007.08
2017-06-10T00:02:37.643Z,1007.06
2017-06-10T00:03:39.087Z,1007.07
2017-06-10T00:04:40.525Z,1007.07
2017-06-10T00:05:41.959Z,1007.07
2017-06-10T00:06:43.400Z,1007.14
2017-06-10T00:07:44.827Z,1007.11
2017-06-10T00:08:46.270Z,1007.17
2017-06-10T00:09:47.710Z,1007.20
2017-06-10T00:10:49.141Z,1007.19
2017-06-10T00:11:50.575Z,1007.20
2017-06-10T00:12:52.025Z,1007.18
2017-06-10T00:13:53.469Z,1007.18
2017-06-10T00:14:54.900Z,1007.21
2017-06-10T00:15:56.330Z,1007.22
2017-06-10T00:16:57.767Z,1007.22
2017-06-10T00:17:59.209Z,1007.22
2017-06-10T00:19:00.655Z,1007.22
2017-06-10T00:20:02.116Z,1007.18
2017-06-10T00:21:03.550Z,1007.18
2017-06-10T00:22:04.981Z,1007.17
2017-06-10T00:23:06.416Z,1007.19
2017-06-10T00:24:07.849Z,1007.21
2017-06-10T00:25:09.289Z,1007.22
2017-06-10T00:26:10.723Z,1007.21
2017-06-10T00:27:12.174Z,1007.23
2017-06-10T00:28:13.642Z,1007.29
2017-06-10T00:29:15.077Z,1007.31
2017-06-10T00:30:16.517Z,1007.34
2017-06-10T00:31:17.958Z,1007.33
2017-06-10T00:32:19.397Z,1007.27
2017-06-10T00:33:20.830Z,1007.30
2017-06-10T00:34:22.268Z,1007.29
2017-06-10T00:35:23.706Z,1007.37
2017-06-10T00:36:25.148Z,1007.34
2017-06-10T00:37:26.586Z,1007.32
2017-06-10T00:38:28.043Z,1007.36
2017-06-10T00:39:29.488Z,1007.33
2017-06-10T00:40:30.922Z,1007.36
2017-06-10T00:41:32.361Z,1007.35
2017-06-10T00:42:33.852Z,1007.36
2017-06-10T00:43:35.287Z,1007.39
2017-06-10T00:44:36.716Z,1007.37
2017-06-10T00:45:38.157Z,1007.36
2017-06-10T00:46:39.661Z,1007.36
2017-06-10T00:47:41.093Z,1007.38
2017-06-10T00:48:42.530Z,1007.42
2017-06-10T00:49:43.967Z,1007.44
2017-06-10T00:50:45.397Z,1007.44
2017-06-10T00:51:46.834Z,1007.43
2017-06-10T00:52:48.272Z,1007.49
2017-06-10T00:53:49.710Z,1007.47
2017-06-10T00:54:51.149Z,1007.51
2017-06-10T00:55:52.588Z,1007.48
2017-06-10T00:56:54.083Z,1007.53
2017-06-10T00:57:55.534Z,1007.50
2017-06-10T00:58:56.964Z,1007.53
2017-06-10T00:59:58.399Z,1007.51
2017-06-10T01:00:59.845Z,1007.52
2017-06-10T01:02:01.291Z,1007.53
2017-06-10T01:03:02.729Z,1007.56
2017-06-10T01:04:04.169Z,1007.52
2017-06-10T01:05:05.602Z,1007.57
2017-06-10T01:06:07.031Z,1007.55
2017-06-10T01:07:08.466Z,1007.58
2017-06-10T01:08:09.903Z,1007.55
2017-06-10T01:09:11.347Z,1007.54
2017-06-10T01:10:12.786Z,1007.56
2017-06-10T01:11:14.221Z,1007.56
2017-06-10T01:12:15.661Z,1007.59
2017-06-10T01:13:17.092Z,1007.55
2017-06-10T01:14:18.521Z,1007.56
2017-06-10T01:15:19.961Z,1007.59
2017-06-10T01:16:21.405Z,1007.56
2017-06-10T01:17:22.852Z,1007.59
2017-06-10T01:18:24.276Z,1007.63
2017-06-10T01:19:25.704Z,1007.61
2017-06-10T01:20:27.140Z,1007.62
2017-06-10T01:21:28.586Z,1007.62
2017-06-10T01:22:30.027Z,1007.63
2017-06-10T01:23:31.459Z,1007.67
2017-06-10T01:24:32.900Z,1007.65
2017-06-10T01:25:34.331Z,1007.64
2017-06-10T01:26:35.764Z,1007.64
2017-06-10T01:27:37.201Z,1007.66
2017-06-10T01:28:38.638Z,1007.61
2017-06-10T01:29:40.080Z,1007.64
2017-06-10T01:30:41.522Z,1007.65
2017-06-10T01:31:42.958Z,1007.65
2017-06-10T01:32:44.393Z,1007.68
2017-06-10T01:33:45.833Z,1007.69
2017-06-10T01:34:47.270Z,1007.73
2017-06-10T01:35:48.709Z,1007.72
2017-06-10T01:36:50.150Z,1007.74
2017-06-10T01:37:51.585Z,1007.73
2017-06-10T01:38:53.027Z,1007.75
2017-06-10T01:39:54.456Z,1007.72
2017-06-10T01:40:55.888Z,1007.75
2017-06-10T01:41:57.324Z,1007.72
2017-06-10T01:42:58.756Z,1007.78
2017-06-10T01:44:00.191Z,1007.78
2017-06-10T01:45:01.626Z,1007.85
2017-06-10T01:46:03.062Z,1007.81
2017-06-10T01:47:04.492Z,1007.83
2017-06-10T01:48:05.929Z,1007.86
2017-06-10T01:49:07.356Z,1007.84
2017-06-10T01:50:08.787Z,1007.88
2017-06-10T01:51:10.222Z,1007.90
2017-06-10T01:52:11.663Z,1007.89
2017-06-10T01:53:13.098Z,1007.89
2017-06-10T01:54:14.536Z,1007.81
2017-06-10T01:55:15.966Z,1007.85
2017-06-10T01:56:17.401Z,1007.86
2017-06-10T01:57:18.832Z,1007.86
2017-06-10T01:58:20.270Z,1007.84
2017-06-10T01:59:21.708Z,1007.87
2017-06-10T02:00:23.143Z,1007.87
2017-06-10T02:01:24.575Z,1007.89
2017-06-10T02:02:26.007Z,1007.90
2017-06-10T02:03:27.446Z,1007.95
2017-06-10T02:04:28.875Z,1007.92
2017-06-10T02:05:30.314Z,1007.97
2017-06-10T02:06:31.743Z,1007.96
2017-06-10T02:07:33.183Z,1007.99
2017-06-10T02:08:34.640Z,1008.02
2017-06-10T02:09:36.078Z,1008.03
2017-06-10T02:10:37.506Z,1008.04
2017-06-10T02:11:38.944Z,1008.07
2017-06-10T02:12:40.382Z,1008.07
2017-06-10T02:13:41.817Z,1008.12
2017-06-10T02:14:43.259Z,1008.11
2017-06-10T02:15:44.702Z,1008.10
2017-06-10T02:16:46.131Z,1008.11
2017-06-10T02:17:47.568Z,1008.10
2017-06-10T02:18:49.004Z,1008.10
2017-06-10T02:19:50.460Z,1008.14
2017-06-10T02:20:51.870Z,1008.12
2017-06-10T02:21:53.306Z,1008.15
2017-06-10T02:22:54.741Z,1008.12
2017-06-10T02:23:56.177Z,1008.11
2017-06-10T02:24:57.617Z,1008.13
2017-06-10T02:25:59.061Z,1008.14
2017-06-10T02:27:00.496Z,1008.10
2017-06-10T02:28:01.930Z,1008.09
2017-06-10T02:29:03.371Z,1008.10
2017-06-10T02:30:04.801Z,1008.10
2017-06-10T02:31:06.239Z,1008.10
2017-06-10T02:32:07.671Z,1008.05
2017-06-10T02:33:09.106Z,1008.11
2017-06-10T02:34:10.544Z,1008.15
2017-06-10T02:35:11.981Z,1008.16
2017-06-10T02:36:13.417Z,1008.17
2017-06-10T02:37:14.850Z,1008.16
2017-06-10T02:38:16.291Z,1008.14
2017-06-10T02:39:17.721Z,1008.17
2017-06-10T02:40:19.171Z,1008.13
2017-06-10T02:41:20.591Z,1008.18
2017-06-10T02:42:22.026Z,1008.19
2017-06-10T02:43:23.455Z,1008.20
2017-06-10T02:44:24.891Z,1008.14
2017-06-10T02:45:26.331Z,1008.15
2017-06-10T02:46:27.766Z,1008.15
2017-06-10T02:47:29.211Z,1008.17
2017-06-10T02:48:30.641Z,1008.13
2017-06-10T02:49:32.079Z,1008.20
2017-06-10T02:50:33.515Z,1008.22
2017-06-10T02:51:34.951Z,1008.26
2017-06-10T02:52:36.382Z,1008.27
2017-06-10T02:53:37.820Z,1008.29
2017-06-10T02:54:39.252Z,1008.34
2017-06-10T02:55:40.684Z,1008.30
2017-06-10T02:56:42.125Z,1008.33
2017-06-10T02:57:43.558Z,1008.35
2017-06-10T02:58:45.000Z,1008.33
2017-06-10T02:59:46.432Z,1008.32
2017-06-10T03:00:47.864Z,1008.32
2017-06-10T03:01:49.294Z,1008.33
2017-06-10T03:02:50.732Z,1008.39
2017-06-10T03:03:52.163Z,1008.40
2017-06-10T03:04:53.603Z,1008.44
2017-06-10T03:05:55.037Z,1008.48
2017-06-10T03:06:56.464Z,1008.51
2017-06-10T03:07:57.936Z,1008.51
2017-06-10T03:08:59.361Z,1008.48
2017-06-10T03:10:00.801Z,1008.52
2017-06-10T03:11:02.250Z,1008.46
2017-06-10T03:12:03.692Z,1008.49
2017-06-10T03:13:05.126Z,1008.49
2017-06-10T03:14:06.556Z,1008.51
2017-06-10T03:15:07.991Z,1008.50
2017-06-10T03:16:09.427Z,1008.47
2017-06-10T03:17:10.863Z,1008.52
2017-06-10T03:18:12.307Z,1008.55
2017-06-10T03:19:13.738Z,1008.50
2017-06-10T03:20:15.175Z,1008.54
2017-06-10T03:21:16.608Z,1008.53
2017-06-10T03:22:18.045Z,1008.55
2017-06-10T03:23:19.568Z,1008.58
2017-06-10T03:24:21.002Z,1008.60
2017-06-10T03:25:22.441Z,1008.65
2017-06-10T03:26:23.879Z,1008.66
2017-06-10T03:27:25.322Z,1008.64
2017-06-10T03:28:26.755Z,1008.59
2017-06-10T03:29:28.191Z,1008.64
2017-06-10T03:30:29.635Z,1008.66
2017-06-10T03:31:31.063Z,1008.64
2017-06-10T03:32:32.507Z,1008.64
2017-06-10T03:33:33.942Z,1008.67
2017-06-10T03:34:35.401Z,1008.66
2017-06-10T03:35:36.803Z,1008.69
2017-06-10T03:36:38.352Z,1008.68
2017-06-10T03:37:39.790Z,1008.71
2017-06-10T03:38:41.228Z,1008.65
2017-06-10T03:39:42.658Z,1008.66
2017-06-10T03:40:44.099Z,1008.63
2017-06-10T03:41:45.539Z,1008.67
2017-06-10T03:42:46.967Z,1008.70
2017-06-10T03:43:48.397Z,1008.69
2017-06-10T03:44:49.837Z,1008.69
2017-06-10T03:45:51.269Z,1008.73
2017-06-10T03:46:52.711Z,1008.73
2017-06-10T03:47:54.155Z,1008.70
2017-06-10T03:48:55.651Z,1008.73
2017-06-10T03:49:57.082Z,1008.71
2017-06-10T03:50:58.514Z,1008.71
2017-06-10T03:51:59.951Z,1008.76
2017-06-10T03:53:01.384Z,1008.80
2017-06-10T03:54:02.821Z,1008.82
2017-06-10T03:55:04.355Z,1008.85
2017-06-10T03:56:05.785Z,1008.88
2017-06-10T03:57:07.222Z,1008.90
2017-06-10T03:58:08.649Z,1008.86
2017-06-10T03:59:10.083Z,1008.91
2017-06-10T04:00:11.588Z,1008.90
2017-06-10T04:01:13.029Z,1008.86
2017-06-10T04:02:14.478Z,1008.89
2017-06-10T04:03:15.909Z,1008.92
2017-06-10T04:04:17.346Z,1008.89
2017-06-10T04:05:18.775Z,1008.91
2017-06-10T04:06:20.232Z,1008.94
2017-06-10T04:07:21.667Z,1008.91
2017-06-10T04:08:23.098Z,1008.93
2017-06-10T04:09:24.539Z,1008.93
2017-06-10T04:10:26.001Z,1008.90
2017-06-10T04:11:27.431Z,1008.94
2017-06-10T04:12:28.866Z,1008.98
2017-06-10T04:13:30.300Z,1008.94
2017-06-10T04:14:31.798Z,1008.93
2017-06-10T04:15:33.233Z,1008.94
2017-06-10T04:16:34.668Z,1008.92
2017-06-10T04:17:36.094Z,1008.93
2017-06-10T04:18:37.562Z,1008.94
2017-06-10T04:19:38.998Z,1008.97
2017-06-10T04:20:40.435Z,1008.94
2017-06-10T04:21:41.870Z,1008.91
2017-06-10T04:22:43.310Z,1008.99
2017-06-10T04:23:44.740Z,1009.01
2017-06-10T04:24:46.217Z,1009.00
2017-06-10T04:25:47.647Z,1009.03
2017-06-10T04:26:49.085Z,1009.05
2017-06-10T04:27:50.524Z,1009.05
2017-06-10T04:28:51.964Z,1009.08
2017-06-10T04:29:53.402Z,1009.13
2017-06-10T04:30:54.843Z,1009.11
2017-06-10T04:31:56.284Z,1009.08
2017-06-10T04:32:57.747Z,1009.07
2017-06-10T04:33:59.184Z,1009.09
2017-06-10T04:35:00.617Z,1009.10
2017-06-10T04:36:02.127Z,1009.07
2017-06-10T04:37:03.566Z,1009.10
2017-06-10T04:38:04.999Z,1009.10
2017-06-10T04:39:06.433Z,1009.11
2017-06-10T04:40:07.871Z,1009.17
2017-06-10T04:41:09.302Z,1009.18
2017-06-10T04:42:10.731Z,1009.15
2017-06-10T04:43:12.167Z,1009.17
2017-06-10T04:44:13.616Z,1009.11
2017-06-10T04:45:15.056Z,1009.13
2017-06-10T04:46:16.489Z,1009.14
2017-06-10T04:47:17.931Z,1009.15
2017-06-10T04:48:19.369Z,1009.21
2017-06-10T04:49:20.799Z,1009.19
2017-06-10T04:50:22.316Z,1009.22
2017-06-10T04:51:23.750Z,1009.20
2017-06-10T04:52:25.191Z,1009.23
2017-06-10T04:53:26.617Z,1009.20
2017-06-10T04:54:28.054Z,1009.18
2017-06-10T04:55:29.498Z,1009.26
2017-06-10T04:56:30.939Z,1009.26
2017-06-10T04:57:32.376Z,1009.33
2017-06-10T04:58:33.852Z,1009.34
2017-06-10T04:59:35.289Z,1009.25
2017-06-10T05:00:36.726Z,1009.26
2017-06-10T05:01:38.157Z,1009.27
2017-06-10T05:02:39.643Z,1009.28
2017-06-10T05:03:41.080Z,1009.26
2017-06-10T05:04:42.513Z,1009.27
2017-06-10T05:05:43.949Z,1009.29
2017-06-10T05:06:45.384Z,1009.30
2017-06-10T05:07:46.811Z,1009.30
2017-06-10T05:08:48.279Z,1009.33
2017-06-10T05:09:49.745Z,1009.30
2017-06-10T05:10:51.186Z,1009.33
2017-06-10T05:11:52.627Z,1009.35
2017-06-10T05:12:54.094Z,1009.38
2017-06-10T05:13:55.539Z,1009.39
2017-06-10T05:14:56.973Z,1009.43
2017-06-10T05:15:58.415Z,1009.44
2017-06-10T05:16:59.848Z,1009.45
2017-06-10T05:18:01.284Z,1009.47
2017-06-10T05:19:02.718Z,1009.48
2017-06-10T05:20:04.155Z,1009.52
2017-06-10T05:21:05.587Z,1009.54
2017-06-10T05:22:07.027Z,1009.56
2017-06-10T05:23:08.460Z,1009.55
2017-06-10T05:24:09.902Z,1009.57
2017-06-10T05:25:11.338Z,1009.57
2017-06-10T05:26:12.775Z,1009.56
2017-06-10T05:27:14.209Z,1009.59
2017-06-10T05:28:15.649Z,1009.57
2017-06-10T05:29:17.084Z,1009.61
2017-06-10T05:30:18.524Z,1009.58
2017-06-10T05:31:19.965Z,1009.61
2017-06-10T05:32:21.427Z,1009.61
2017-06-10T05:33:22.864Z,1009.63
2017-06-10T05:34:24.309Z,1009.63
2017-06-10T05:35:25.784Z,1009.64
2017-06-10T05:36:27.225Z,1009.65
2017-06-10T05:37:28.656Z,1009.68
2017-06-10T05:38:30.152Z,1009.66
2017-06-10T05:39:31.622Z,1009.62
2017-06-10T05:40:33.061Z,1009.65
2017-06-10T05:41:34.501Z,1009.64
2017-06-10T05:42:35.935Z,1009.66
2017-06-10T05:43:37.367Z,1009.66
2017-06-10T05:44:38.803Z,1009.65
2017-06-10T05:45:40.286Z,1009.61
2017-06-10T05:46:41.720Z,1009.66
2017-06-10T05:47:43.155Z,1009.65
2017-06-10T05:48:44.591Z,1009.63
2017-06-10T05:49:46.052Z,1009.64
2017-06-10T05:50:47.482Z,1009.68
2017-06-10T05:51:48.922Z,1009.63
2017-06-10T05:52:50.355Z,1009.58
2017-06-10T05:53:51.845Z,1009.61
2017-06-10T05:54:53.278Z,1009.59
2017-06-10T05:55:54.716Z,1009.63
2017-06-10T05:56:56.197Z,1009.65
2017-06-10T05:57:57.606Z,1009.63
2017-06-10T05:58:59.036Z,1009.64
2017-06-10T06:00:00.480Z,1009.64
2017-06-10T06:01:01.913Z,1009.66
2017-06-10T06:02:03.352Z,1009.65
2017-06-10T06:03:04.789Z,1009.64
2017-06-10T06:04:06.229Z,1009.63
2017-06-10T06:05:07.667Z,1009.65
2017-06-10T06:06:09.104Z,1009.62
2017-06-10T06:07:10.534Z,1009.62
2017-06-10T06:08:12.071Z,1009.67
2017-06-10T06:09:13.508Z,1009.66
2017-06-10T06:10:14.944Z,1009.66
2017-06-10T06:11:16.378Z,1009.66
2017-06-10T06:12:17.839Z,1009.64
2017-06-10T06:13:19.271Z,1009.65
2017-06-10T06:14:20.713Z,1009.66
2017-06-10T06:15:22.151Z,1009.66
2017-06-10T06:16:23.582Z,1009.72
2017-06-10T06:17:25.017Z,1009.68
2017-06-10T06:18:26.457Z,1009.70
2017-06-10T06:19:27.896Z,1009.70
2017-06-10T06:20:29.331Z,1009.72
2017-06-10T06:21:30.767Z,1009.74
2017-06-10T06:22:32.211Z,1009.75
2017-06-10T06:23:33.653Z,1009.74
2017-06-10T06:24:35.089Z,1009.78
2017-06-10T06:25:36.524Z,1009.79
2017-06-10T06:26:37.959Z,1009.78
2017-06-10T06:27:39.392Z,1009.81
2017-06-10T06:28:40.831Z,1009.82
2017-06-10T06:29:42.380Z,1009.82
2017-06-10T06:30:43.814Z,1009.86
2017-06-10T06:31:45.263Z,1009.84
2017-06-10T06:32:46.695Z,1009.85
2017-06-10T06:33:48.130Z,1009.87
2017-06-10T06:34:49.566Z,1009.85
2017-06-10T06:35:51.002Z,1009.85
2017-06-10T06:36:52.437Z,1009.85
2017-06-10T06:37:53.903Z,1009.87
2017-06-10T06:38:55.335Z,1009.88
2017-06-10T06:39:56.781Z,1009.88
2017-06-10T06:40:58.221Z,1009.91
2017-06-10T06:41:59.658Z,1009.91
2017-06-10T06:43:01.088Z,1009.90
2017-06-10T06:44:02.527Z,1009.92
2017-06-10T06:45:03.963Z,1009.92
2017-06-10T06:46:05.402Z,1009.92
2017-06-10T06:47:06.841Z,1009.91
2017-06-10T06:48:08.306Z,1009.91
2017-06-10T06:49:09.742Z,1009.93
2017-06-10T06:50:11.182Z,1009.93
2017-06-10T06:51:12.611Z,1009.94
2017-06-10T06:52:14.070Z,1009.96
2017-06-10T06:53:15.508Z,1009.97
2017-06-10T06:54:16.949Z,1010.00
2017-06-10T06:55:18.387Z,1009.99
2017-06-10T06:56:19.853Z,1010.04
2017-06-10T06:57:21.287Z,1010.05
2017-06-10T06:58:22.725Z,1010.07
2017-06-10T06:59:24.162Z,1010.10
2017-06-10T07:00:25.600Z,1010.13
2017-06-10T07:01:27.034Z,1010.11
2017-06-10T07:02:28.477Z,1010.11
2017-06-10T07:03:29.915Z,1010.13
2017-06-10T07:04:31.354Z,1010.16
2017-06-10T07:05:32.787Z,1010.19
2017-06-10T07:06:34.229Z,1010.15
2017-06-10T07:07:35.672Z,1010.15
2017-06-10T07:08:37.104Z,1010.08
2017-06-10T07:09:38.536Z,1010.12
2017-06-10T07:10:39.993Z,1010.16
2017-06-10T07:11:41.429Z,1010.07
2017-06-10T07:12:42.863Z,1010.15
2017-06-10T07:13:44.297Z,1010.13
2017-06-10T07:14:45.742Z,1010.08
2017-06-10T07:15:47.177Z,1010.11
2017-06-10T07:16:48.613Z,1010.10
2017-06-10T07:17:50.046Z,1010.12
2017-06-10T07:18:51.484Z,1010.09
2017-06-10T07:19:52.920Z,1010.13
2017-06-10T07:20:54.360Z,1010.16
2017-06-10T07:21:55.798Z,1010.15
2017-06-10T07:22:57.236Z,1010.16
2017-06-10T07:23:58.670Z,1010.14
2017-06-10T07:25:00.106Z,1010.12
2017-06-10T07:26:01.548Z,1010.18
2017-06-10T07:27:02.988Z,1010.17
2017-06-10T07:28:04.420Z,1010.16
2017-06-10T07:29:05.865Z,1010.17
2017-06-10T07:30:07.300Z,1010.17
2017-06-10T07:31:08.744Z,1010.10
2017-06-10T07:32:10.186Z,1010.14
2017-06-10T07:33:11.624Z,1010.16
2017-06-10T07:34:13.068Z,1010.18
2017-06-10T07:35:14.501Z,1010.20
2017-06-10T07:36:15.942Z,1010.24
2017-06-10T07:37:17.379Z,1010.23
2017-06-10T07:38:18.817Z,1010.20
2017-06-10T07:39:20.250Z,1010.21
2017-06-10T07:40:21.688Z,1010.19
2017-06-10T07:41:23.135Z,1010.22
2017-06-10T07:42:24.594Z,1010.19
2017-06-10T07:43:26.007Z,1010.19
2017-06-10T07:44:27.440Z,1010.23
2017-06-10T07:45:28.873Z,1010.27
2017-06-10T07:46:30.304Z,1010.28
2017-06-10T07:47:31.741Z,1010.30
2017-06-10T07:48:33.179Z,1010.30
2017-06-10T07:49:34.618Z,1010.35
2017-06-10T07:50:36.063Z,1010.30
2017-06-10T07:51:37.505Z,1010.31
2017-06-10T07:52:38.934Z,1010.30
2017-06-10T07:53:40.367Z,1010.31
2017-06-10T07:54:41.800Z,1010.30
2017-06-10T07:55:43.246Z,1010.32
2017-06-10T07:56:44.685Z,1010.31
2017-06-10T07:57:46.123Z,1010.36
2017-06-10T07:58:47.563Z,1010.39
2017-06-10T07:59:48.997Z,1010.34
2017-06-10T08:00:50.433Z,1010.35
2017-06-10T08:01:51.868Z,1010.34
2017-06-10T08:02:53.296Z,1010.34
2017-06-10T08:03:54.738Z,1010.35
2017-06-10T08:04:56.184Z,1010.35
2017-06-10T08:05:57.629Z,1010.34
2017-06-10T08:06:59.062Z,1010.38
2017-06-10T08:08:00.506Z,1010.34
2017-06-10T08:09:01.946Z,1010.35
2017-06-10T08:10:03.379Z,1010.39
2017-06-10T08:11:04.818Z,1010.39
2017-06-10T08:12:06.256Z,1010.42
2017-06-10T08:13:07.690Z,1010.41
2017-06-10T08:14:09.128Z,1010.41
2017-06-10T08:15:10.570Z,1010.44
2017-06-10T08:16:12.007Z,1010.41
2017-06-10T08:17:13.443Z,1010.38
2017-06-10T08:18:14.893Z,1010.39
2017-06-10T08:19:16.329Z,1010.36
2017-06-10T08:20:17.776Z,1010.36
2017-06-10T08:21:19.209Z,1010.37
2017-06-10T08:22:20.639Z,1010.39
2017-06-10T08:23:22.101Z,1010.42
2017-06-10T08:24:23.555Z,1010.42
2017-06-10T08:25:24.988Z,1010.41
2017-06-10T08:26:26.424Z,1010.40
2017-06-10T08:27:27.856Z,1010.44
2017-06-10T08:28:29.290Z,1010.48
2017-06-10T08:29:30.725Z,1010.44
2017-06-10T08:30:32.165Z,1010.45
2017-06-10T08:31:33.597Z,1010.47
2017-06-10T08:32:35.043Z,1010.47
2017-06-10T08:33:36.478Z,1010.51
2017-06-10T08:34:37.915Z,1010.53
2017-06-10T08:35:39.349Z,1010.51
2017-06-10T08:36:40.787Z,1010.51
2017-06-10T08:37:42.227Z,1010.50
2017-06-10T08:38:43.659Z,1010.47
2017-06-10T08:39:45.094Z,1010.45
2017-06-10T08:40:46.542Z,1010.44
2017-06-10T08:41:47.980Z,1010.50
2017-06-10T08:42:49.412Z,1010.50
2017-06-10T08:43:50.850Z,1010.54
2017-06-10T08:44:52.286Z,1010.55
2017-06-10T08:45:53.722Z,1010.54
2017-06-10T08:46:55.155Z,1010.52
2017-06-10T08:47:56.589Z,1010.53
2017-06-10T08:48:58.025Z,1010.54
2017-06-10T08:49:59.467Z,1010.55
2017-06-10T08:51:00.899Z,1010.57
2017-06-10T08:52:02.332Z,1010.58
2017-06-10T08:53:03.775Z,1010.58
2017-06-10T08:54:05.216Z,1010.54
2017-06-10T08:55:06.662Z,1010.58
2017-06-10T08:56:08.103Z,1010.56
2017-06-10T08:57:09.545Z,1010.55
2017-06-10T08:58:10.983Z,1010.52
2017-06-10T08:59:12.415Z,1010.52
2017-06-10T09:00:13.843Z,1010.54
2017-06-10T09:01:15.276Z,1010.47
2017-06-10T09:02:16.724Z,1010.49
2017-06-10T09:03:18.172Z,1010.52
2017-06-10T09:04:19.608Z,1010.51
2017-06-10T09:05:21.042Z,1010.47
2017-06-10T09:06:22.483Z,1010.43
2017-06-10T09:07:23.927Z,1010.44
2017-06-10T09:08:25.365Z,1010.48
2017-06-10T09:09:26.799Z,1010.42
2017-06-10T09:10:28.239Z,1010.46
2017-06-10T09:11:29.669Z,1010.42
2017-06-10T09:12:31.107Z,1010.36
2017-06-10T09:13:32.544Z,1010.38
2017-06-10T09:14:33.981Z,1010.37
2017-06-10T09:15:35.415Z,1010.35
2017-06-10T09:16:36.854Z,1010.36
2017-06-10T09:17:38.299Z,1010.34
2017-06-10T09:18:39.729Z,1010.35
2017-06-10T09:19:41.164Z,1010.34
2017-06-10T09:20:42.599Z,1010.33
2017-06-10T09:21:44.049Z,1010.35
2017-06-10T09:22:45.491Z,1010.35
2017-06-10T09:23:46.929Z,1010.34
2017-06-10T09:24:48.362Z,1010.35
2017-06-10T09:25:49.797Z,1010.38
2017-06-10T09:26:51.229Z,1010.37
2017-06-10T09:27:52.663Z,1010.35
2017-06-10T09:28:54.099Z,1010.35
2017-06-10T09:29:55.536Z,1010.31
2017-06-10T09:30:56.975Z,1010.33
2017-06-10T09:31:58.418Z,1010.30
2017-06-10T09:32:59.848Z,1010.27
2017-06-10T09:34:01.288Z,1010.20
2017-06-10T09:35:02.728Z,1010.23
2017-06-10T09:36:04.168Z,1010.21
2017-06-10T09:37:05.603Z,1010.16
2017-06-10T09:38:07.038Z,1010.12
2017-06-10T09:39:08.509Z,1010.17
2017-06-10T09:40:09.946Z,1010.13
2017-06-10T09:41:11.383Z,1010.10
2017-06-10T09:42:12.812Z,1010.13
2017-06-10T09:43:14.259Z,1010.12
2017-06-10T09:44:15.703Z,1010.17
2017-06-10T09:45:17.142Z,1010.19
2017-06-10T09:46:18.578Z,1010.16
2017-06-10T09:47:20.016Z,1010.17
2017-06-10T09:48:21.449Z,1010.20
2017-06-10T09:49:22.884Z,1010.19
2017-06-10T09:50:24.331Z,1010.19
2017-06-10T09:51:25.768Z,1010.18
2017-06-10T09:52:27.208Z,1010.18
2017-06-10T09:53:28.639Z,1010.18
2017-06-10T09:54:30.073Z,1010.15
2017-06-10T09:55:31.512Z,1010.14
2017-06-10T09:56:32.945Z,1010.15
2017-06-10T09:57:34.385Z,1010.17
2017-06-10T09:58:35.838Z,1010.18
2017-06-10T09:59:37.278Z,1010.17
2017-06-10T10:00:38.717Z,1010.15
2017-06-10T10:01:40.153Z,1010.19
2017-06-10T10:02:41.591Z,1010.15
2017-06-10T10:03:43.032Z,1010.17
2017-06-10T10:04:44.476Z,1010.15
2017-06-10T10:05:45.920Z,1010.15
2017-06-10T10:06:47.360Z,1010.15
2017-06-10T10:07:48.794Z,1010.15
2017-06-10T10:08:50.236Z,1010.26
2017-06-10T10:09:51.668Z,1010.17
2017-06-10T10:10:53.105Z,1010.13
2017-06-10T10:11:54.531Z,1010.09
2017-06-10T10:12:55.974Z,1010.07
2017-06-10T10:13:57.415Z,1010.05
2017-06-10T10:14:58.853Z,1010.08
2017-06-10T10:16:00.285Z,1010.08
2017-06-10T10:17:01.728Z,1010.13
2017-06-10T10:18:03.173Z,1010.21
2017-06-10T10:19:04.610Z,1010.18
2017-06-10T10:20:06.042Z,1010.20
2017-06-10T10:21:07.497Z,1010.13
2017-06-10T10:22:08.952Z,1010.14
2017-06-10T10:23:10.375Z,1010.11
2017-06-10T10:24:11.822Z,1010.11
2017-06-10T10:25:13.261Z,1010.19
2017-06-10T10:26:14.698Z,1010.20
2017-06-10T10:27:16.131Z,1010.19
2017-06-10T10:28:17.566Z,1010.11
2017-06-10T10:29:18.995Z,1010.15
2017-06-10T10:30:20.429Z,1010.16
2017-06-10T10:31:21.866Z,1010.08
2017-06-10T10:32:23.298Z,1010.09
2017-06-10T10:33:24.746Z,1010.04
2017-06-10T10:34:26.178Z,1010.00
2017-06-10T10:35:27.615Z,1009.99
2017-06-10T10:36:29.061Z,1009.99
2017-06-10T10:37:30.487Z,1010.02
2017-06-10T10:38:31.926Z,1010.02
2017-06-10T10:39:33.368Z,1010.03
2017-06-10T10:40:34.803Z,1010.04
2017-06-10T10:41:36.238Z,1010.04
2017-06-10T10:42:37.679Z,1009.99
2017-06-10T10:43:39.121Z,1010.04
2017-06-10T10:44:40.549Z,1010.07
2017-06-10T10:45:41.978Z,1010.01
2017-06-10T10:46:43.422Z,1009.94
2017-06-10T10:47:44.856Z,1009.96
2017-06-10T10:48:46.295Z,1009.91
2017-06-10T10:49:47.742Z,1009.89
2017-06-10T10:50:49.177Z,1009.89
2017-06-10T10:51:50.611Z,1009.93
2017-06-10T10:52:52.042Z,1009.87
2017-06-10T10:53:53.475Z,1009.88
2017-06-10T10:54:54.912Z,1009.84
2017-06-10T10:55:56.349Z,1009.85
2017-06-10T10:56:57.788Z,1009.94
2017-06-10T10:57:59.224Z,1009.87
2017-06-10T10:59:00.658Z,1009.92
2017-06-10T11:00:02.096Z,1009.83
2017-06-10T11:01:03.527Z,1009.87
2017-06-10T11:02:04.966Z,1009.90
2017-06-10T11:03:06.401Z,1009.89
2017-06-10T11:04:07.845Z,1009.87
2017-06-10T11:05:09.278Z,1009.85
2017-06-10T11:06:10.717Z,1009.89
2017-06-10T11:07:12.154Z,1009.87
2017-06-10T11:08:13.591Z,1009.85
2017-06-10T11:09:15.030Z,1009.82
2017-06-10T11:10:16.467Z,1009.85
2017-06-10T11:11:17.903Z,1009.92
2017-06-10T11:12:19.343Z,1009.88
2017-06-10T11:13:20.771Z,1009.88
2017-06-10T11:14:22.209Z,1009.94
2017-06-10T11:15:23.645Z,1009.92
2017-06-10T11:16:25.077Z,1009.95
2017-06-10T11:17:26.511Z,1009.80
2017-06-10T11:18:27.942Z,1009.82
2017-06-10T11:19:29.380Z,1009.84
2017-06-10T11:20:30.813Z,1009.84
2017-06-10T11:21:32.255Z,1009.88
2017-06-10T11:22:33.693Z,1009.81
2017-06-10T11:23:35.127Z,1009.92
2017-06-10T11:24:36.568Z,1009.92
2017-06-10T11:25:38.012Z,1009.79
2017-06-10T11:26:39.446Z,1009.80
2017-06-10T11:27:40.883Z,1009.85
2017-06-10T11:28:42.318Z,1009.80
2017-06-10T11:29:43.758Z,1009.79
2017-06-10T11:30:45.195Z,1009.82
2017-06-10T11:31:46.634Z,1009.83
2017-06-10T11:32:48.076Z,1009.77
2017-06-10T11:33:49.508Z,1009.76
2017-06-10T11:34:50.949Z,1009.81
2017-06-10T11:35:52.381Z,1009.75
2017-06-10T11:36:53.828Z,1009.79
2017-06-10T11:37:55.264Z,1009.78
2017-06-10T11:38:57.554Z,1009.80
2017-06-10T11:39:59.002Z,1009.76
2017-06-10T11:41:00.443Z,1009.77
2017-06-10T11:42:01.887Z,1009.75
2017-06-10T11:43:03.336Z,1009.78
2017-06-10T11:44:04.758Z,1009.76
2017-06-10T11:45:06.196Z,1009.73
2017-06-10T11:46:08.342Z,1009.75
2017-06-10T11:47:09.795Z,1009.70
2017-06-10T11:48:11.220Z,1009.67
2017-06-10T11:49:12.647Z,1009.68
2017-06-10T11:50:14.084Z,1009.69
2017-06-10T11:51:15.529Z,1009.72
2017-06-10T11:52:16.978Z,1009.73
2017-06-10T11:53:18.421Z,1009.79
2017-06-10T11:54:19.864Z,1009.71
2017-06-10T11:55:21.303Z,1009.66
2017-06-10T11:56:22.748Z,1009.61
2017-06-10T11:57:24.185Z,1009.66
2017-06-10T11:58:25.630Z,1009.68
2017-06-10T11:59:27.074Z,1009.63
2017-06-10T12:00:28.516Z,1009.63
2017-06-10T12:01:29.957Z,1009.59
2017-06-10T12:02:31.392Z,1009.58
2017-06-10T12:03:32.825Z,1009.60
2017-06-10T12:04:34.268Z,1009.54
2017-06-10T12:05:35.704Z,1009.56
2017-06-10T12:06:37.140Z,1009.68
2017-06-10T12:07:38.579Z,1009.59
2017-06-10T12:08:40.012Z,1009.67
2017-06-10T12:09:41.453Z,1009.59
2017-06-10T12:10:42.894Z,1009.62
2017-06-10T12:11:44.331Z,1009.63
2017-06-10T12:12:45.769Z,1009.65
2017-06-10T12:13:47.206Z,1009.63
2017-06-10T12:14:48.648Z,1009.63
2017-06-10T12:15:50.081Z,1009.63
2017-06-10T12:16:51.513Z,1009.63
2017-06-10T12:17:52.947Z,1009.57
2017-06-10T12:18:54.381Z,1009.62
2017-06-10T12:19:55.819Z,1009.57
2017-06-10T12:20:57.254Z,1009.62
2017-06-10T12:21:58.694Z,1009.65
2017-06-10T12:23:00.128Z,1009.68